createdAt,value
2023-01-28T00:00:56.332Z,5.57
2023-01-28T00:03:23.262Z,5.37
2023-01-28T00:05:50.200Z,5.30
2023-01-28T00:08:16.991Z,5.20
2023-01-28T00:10:43.750Z,5.60
2023-01-28T00:13:16.114Z,5.73
2023-01-28T00:15:45.221Z,5.90
2023-01-28T00:18:12.073Z,3.77
2023-01-28T00:20:38.785Z,5.27
2023-01-28T00:23:05.695Z,5.70
2023-01-28T00:25:32.491Z,5.73
2023-01-28T00:27:59.282Z,6.00
2023-01-28T00:30:26.028Z,6.30
2023-01-28T00:32:55.540Z,6.17
2023-01-28T00:35:22.390Z,5.17
2023-01-28T00:37:49.193Z,5.70
2023-01-28T00:40:16.549Z,6.33
2023-01-28T00:42:43.316Z,6.23
2023-01-28T00:45:10.654Z,5.63
2023-01-28T00:47:37.704Z,6.07
2023-01-28T00:50:05.287Z,6.43
2023-01-28T00:52:32.111Z,7.00
2023-01-28T00:54:58.889Z,6.30
2023-01-28T00:57:25.614Z,6.10
2023-01-28T00:59:52.419Z,6.20
2023-01-28T01:02:19.243Z,5.87
2023-01-28T01:04:54.977Z,5.83
2023-01-28T01:07:32.152Z,5.40
2023-01-28T01:10:02.602Z,5.03
2023-01-28T01:12:29.977Z,4.90
2023-01-28T01:14:57.580Z,5.57
2023-01-28T01:17:24.733Z,5.47
2023-01-28T01:19:51.588Z,4.90
2023-01-28T01:22:18.369Z,5.50
2023-01-28T01:24:45.146Z,5.20
2023-01-28T01:27:11.893Z,5.10
2023-01-28T01:29:39.327Z,5.20
2023-01-28T01:32:06.196Z,5.00
2023-01-28T01:34:33.059Z,5.10
2023-01-28T01:36:59.813Z,5.07
2023-01-28T01:39:26.602Z,5.27
2023-01-28T01:41:53.393Z,4.60
2023-01-28T01:44:59.151Z,4.43
2023-01-28T01:48:07.870Z,5.00
2023-01-28T01:50:45.064Z,5.03
2023-01-28T01:53:21.091Z,5.00
2023-01-28T01:55:52.621Z,4.80
2023-01-28T01:58:27.721Z,4.93
2023-01-28T02:00:54.565Z,5.00
2023-01-28T02:03:52.024Z,4.97
2023-01-28T02:06:19.702Z,4.70
2023-01-28T02:08:46.478Z,4.73
2023-01-28T02:11:17.807Z,4.80
2023-01-28T02:13:56.856Z,4.70
2023-01-28T02:16:26.459Z,3.90
2023-01-28T02:18:53.284Z,4.67
2023-01-28T02:21:34.944Z,4.60
2023-01-28T02:24:38.428Z,4.10
2023-01-28T02:27:13.877Z,4.10
2023-01-28T02:30:19.373Z,3.90
2023-01-28T02:32:59.154Z,3.53
2023-01-28T02:35:53.474Z,3.60
2023-01-28T02:38:37.136Z,2.37
2023-01-28T02:41:29.939Z,1.73
2023-01-28T02:43:56.698Z,3.70
2023-01-28T02:46:55.565Z,3.83
2023-01-28T02:49:48.833Z,3.50
2023-01-28T02:53:23.548Z,3.80
2023-01-28T02:56:21.829Z,3.50
2023-01-28T02:59:26.333Z,3.30
2023-01-28T03:02:02.089Z,2.80
2023-01-28T03:04:43.999Z,2.70
2023-01-28T03:07:15.233Z,3.10
2023-01-28T03:09:46.816Z,3.07
2023-01-28T03:12:40.249Z,2.97
2023-01-28T03:15:40.659Z,2.70
2023-01-28T03:18:40.677Z,2.60
2023-01-28T03:21:44.407Z,2.70
2023-01-28T03:25:00.463Z,2.70
2023-01-28T03:28:13.049Z,2.30
2023-01-28T03:31:15.702Z,2.40
2023-01-28T03:34:02.896Z,2.40
2023-01-28T03:36:49.538Z,2.40
2023-01-28T03:39:19.305Z,2.50
2023-01-28T03:42:08.789Z,2.00
2023-01-28T03:44:51.252Z,1.93
2023-01-28T03:47:21.507Z,2.53
2023-01-28T03:49:52.199Z,2.30
2023-01-28T03:52:23.180Z,2.10
2023-01-28T03:54:50.247Z,2.90
2023-01-28T03:57:21.046Z,2.80
2023-01-28T03:59:49.785Z,2.17
2023-01-28T04:02:19.005Z,2.57
2023-01-28T04:04:46.492Z,2.00
2023-01-28T04:07:16.884Z,2.30
2023-01-28T04:09:44.395Z,1.63
2023-01-28T04:12:11.347Z,1.67
2023-01-28T04:14:40.035Z,1.50
2023-01-28T04:17:10.467Z,2.70
2023-01-28T04:19:37.631Z,1.47
2023-01-28T04:22:11.961Z,1.47
2023-01-28T04:24:38.721Z,1.60
2023-01-28T04:27:05.513Z,2.57
2023-01-28T04:29:32.351Z,2.73
2023-01-28T04:31:59.238Z,2.90
2023-01-28T04:34:25.990Z,2.90
2023-01-28T04:36:52.753Z,1.73
2023-01-28T04:39:19.476Z,2.87
2023-01-28T04:41:46.287Z,2.27
2023-01-28T04:44:13.752Z,3.30
2023-01-28T04:46:40.637Z,3.20
2023-01-28T04:49:07.525Z,3.50
2023-01-28T04:51:34.390Z,3.57
2023-01-28T04:54:01.163Z,3.60
2023-01-28T04:56:27.989Z,3.13
2023-01-28T04:58:54.812Z,3.20
2023-01-28T05:01:21.617Z,2.87
2023-01-28T05:03:48.381Z,3.37
2023-01-28T05:06:15.125Z,2.87
2023-01-28T05:08:42.146Z,2.77
2023-01-28T05:11:09.006Z,3.40
2023-01-28T05:13:35.824Z,2.97
2023-01-28T05:16:02.573Z,3.10
2023-01-28T05:18:29.327Z,3.60
2023-01-28T05:20:56.149Z,3.13
2023-01-28T05:23:23.210Z,3.40
2023-01-28T05:25:50.242Z,3.30
2023-01-28T05:28:17.083Z,3.43
2023-01-28T05:30:43.904Z,3.57
2023-01-28T05:33:10.756Z,3.00
2023-01-28T05:35:37.567Z,3.30
2023-01-28T05:38:04.708Z,3.40
2023-01-28T05:40:31.637Z,2.97
2023-01-28T05:42:58.397Z,3.30
2023-01-28T05:45:25.304Z,3.20
2023-01-28T05:47:52.141Z,1.80
2023-01-28T05:50:19.037Z,2.93
2023-01-28T05:52:45.896Z,2.83
2023-01-28T05:55:12.719Z,2.93
2023-01-28T05:57:39.450Z,3.90
2023-01-28T06:00:07.353Z,3.10
2023-01-28T06:02:34.190Z,3.27
2023-01-28T06:05:01.183Z,3.30
2023-01-28T06:07:27.932Z,3.57
2023-01-28T06:09:54.667Z,3.03
2023-01-28T06:12:21.514Z,3.07
2023-01-28T06:14:48.263Z,2.90
2023-01-28T06:17:15.081Z,2.60
2023-01-28T06:19:41.855Z,3.13
2023-01-28T06:22:08.629Z,2.90
2023-01-28T06:24:35.600Z,3.37
2023-01-28T06:27:02.384Z,3.50
2023-01-28T06:29:29.172Z,3.40
2023-01-28T06:31:56.112Z,3.07
2023-01-28T06:34:22.914Z,3.13
2023-01-28T06:36:50.885Z,3.53
2023-01-28T06:39:17.648Z,3.03
2023-01-28T06:41:44.334Z,3.40
2023-01-28T06:44:11.391Z,2.97
2023-01-28T06:46:38.394Z,3.10
2023-01-28T06:49:05.142Z,3.40
2023-01-28T06:51:32.057Z,3.67
2023-01-28T06:53:58.828Z,3.10
2023-01-28T06:56:25.674Z,4.00
2023-01-28T06:58:52.421Z,4.00
2023-01-28T07:01:19.140Z,4.20
2023-01-28T07:03:45.930Z,3.60
2023-01-28T07:06:13.004Z,3.60
2023-01-28T07:08:41.301Z,3.60
2023-01-28T07:11:08.170Z,4.00
2023-01-28T07:13:35.118Z,3.97
2023-01-28T07:16:02.042Z,3.57
2023-01-28T07:18:28.890Z,4.30
2023-01-28T07:20:56.425Z,4.30
2023-01-28T07:23:23.775Z,5.00
2023-01-28T07:25:50.881Z,5.30
2023-01-28T07:28:23.753Z,4.77
2023-01-28T07:30:53.510Z,5.10
2023-01-28T07:33:20.802Z,2.80
2023-01-28T07:35:48.489Z,5.97
2023-01-28T07:38:15.974Z,5.53
2023-01-28T07:40:42.859Z,5.73
2023-01-28T07:43:09.878Z,6.07
2023-01-28T07:45:36.845Z,5.50
2023-01-28T07:48:07.469Z,4.03
2023-01-28T07:50:37.254Z,3.40
2023-01-28T07:53:11.723Z,3.93
2023-01-28T07:55:39.187Z,6.20
2023-01-28T07:58:08.596Z,6.00
2023-01-28T08:00:38.019Z,5.47
2023-01-28T08:03:11.723Z,6.10
2023-01-28T08:05:46.927Z,5.73
2023-01-28T08:08:14.378Z,5.57
2023-01-28T08:10:41.476Z,5.20
2023-01-28T08:13:09.921Z,4.93
2023-01-28T08:15:37.230Z,5.07
2023-01-28T08:18:05.869Z,5.63
2023-01-28T08:20:33.406Z,4.77
2023-01-28T08:23:07.865Z,5.50
2023-01-28T08:25:35.857Z,5.10
2023-01-28T08:28:04.625Z,5.00
2023-01-28T08:30:32.508Z,6.13
2023-01-28T08:33:00.677Z,5.33
2023-01-28T08:35:28.817Z,5.80
2023-01-28T08:37:58.742Z,5.53
2023-01-28T08:40:25.864Z,5.50
2023-01-28T08:42:54.642Z,5.27
2023-01-28T08:45:27.664Z,5.13
2023-01-28T08:48:07.920Z,7.57
2023-01-28T08:50:40.043Z,6.70
2023-01-28T08:53:12.332Z,6.60
2023-01-28T08:55:39.486Z,5.40
2023-01-28T08:58:11.213Z,5.20
2023-01-28T09:00:38.880Z,6.70
2023-01-28T09:03:06.803Z,5.63
2023-01-28T09:05:35.871Z,4.73
2023-01-28T09:08:05.905Z,4.80
2023-01-28T09:10:32.904Z,6.03
2023-01-28T09:13:04.265Z,5.47
2023-01-28T09:15:31.036Z,5.40
2023-01-28T09:17:59.286Z,5.70
2023-01-28T09:20:27.424Z,5.87
2023-01-28T09:22:54.361Z,5.70
2023-01-28T09:25:21.825Z,5.57
2023-01-28T09:27:48.808Z,5.80
2023-01-28T09:30:16.425Z,5.97
2023-01-28T09:32:43.540Z,5.33
2023-01-28T09:35:11.008Z,5.87
2023-01-28T09:37:40.489Z,5.17
2023-01-28T09:40:11.593Z,6.30
2023-01-28T09:43:05.951Z,6.43
2023-01-28T09:45:52.860Z,6.00
2023-01-28T09:48:30.753Z,5.63
2023-01-28T09:50:57.581Z,6.60
2023-01-28T09:53:36.842Z,5.67
2023-01-28T09:56:26.319Z,5.07
2023-01-28T09:58:53.084Z,7.60
2023-01-28T10:01:47.539Z,7.97
2023-01-28T10:05:10.467Z,5.10
2023-01-28T10:07:57.306Z,7.63
2023-01-28T10:10:48.509Z,5.83
2023-01-28T10:13:37.842Z,5.73
2023-01-28T10:16:42.146Z,5.00
2023-01-28T10:19:30.554Z,4.50
2023-01-28T10:22:12.704Z,5.73
2023-01-28T10:24:47.087Z,5.13
2023-01-28T10:27:21.155Z,4.90
2023-01-28T10:29:50.568Z,6.00
2023-01-28T10:32:34.633Z,5.53
2023-01-28T10:35:03.028Z,5.80
2023-01-28T10:37:34.518Z,5.67
2023-01-28T10:40:04.084Z,4.97
2023-01-28T10:42:37.810Z,3.97
2023-01-28T10:45:17.981Z,6.47
2023-01-28T10:47:56.100Z,3.40
2023-01-28T10:50:30.629Z,6.13
2023-01-28T10:53:02.807Z,5.20
2023-01-28T10:55:53.609Z,5.63
2023-01-28T10:58:25.140Z,4.73
2023-01-28T11:01:00.194Z,6.70
2023-01-28T11:03:27.576Z,6.23
2023-01-28T11:05:57.081Z,6.70
2023-01-28T11:08:29.910Z,6.27
2023-01-28T11:10:58.206Z,6.03
2023-01-28T11:13:28.853Z,5.63
2023-01-28T11:16:15.085Z,6.00
2023-01-28T11:18:52.756Z,6.20
2023-01-28T11:21:30.078Z,6.23
2023-01-28T11:24:14.303Z,5.37
2023-01-28T11:26:49.642Z,5.47
2023-01-28T11:29:28.505Z,5.73
2023-01-28T11:31:55.639Z,5.17
2023-01-28T11:34:29.622Z,5.43
2023-01-28T11:37:18.520Z,5.20
2023-01-28T11:39:45.333Z,5.57
2023-01-28T11:42:17.775Z,5.10
2023-01-28T11:44:46.590Z,5.70
2023-01-28T11:47:36.218Z,6.40
2023-01-28T11:50:30.317Z,5.60
2023-01-28T11:53:40.233Z,6.03
2023-01-28T11:56:50.636Z,5.43
2023-01-28T11:59:51.490Z,5.40
2023-01-28T12:02:51.840Z,5.93
2023-01-28T12:06:17.148Z,3.23
2023-01-28T12:09:07.417Z,6.50
2023-01-28T12:12:12.861Z,6.27
2023-01-28T12:15:27.327Z,6.67
2023-01-28T12:18:30.263Z,6.57
2023-01-28T12:21:09.067Z,5.20
2023-01-28T12:23:55.131Z,7.50
2023-01-28T12:26:40.344Z,6.50
2023-01-28T12:29:35.429Z,6.40
2023-01-28T12:32:39.345Z,6.43
2023-01-28T12:35:35.348Z,6.47
2023-01-28T12:38:16.097Z,6.30
2023-01-28T12:41:12.626Z,6.40
2023-01-28T12:44:01.485Z,5.60
2023-01-28T12:46:42.804Z,3.00
2023-01-28T12:49:44.774Z,7.63
2023-01-28T12:52:37.228Z,8.20
2023-01-28T12:55:12.830Z,7.30
2023-01-28T12:57:39.657Z,6.80
2023-01-28T13:00:33.739Z,5.97
2023-01-28T13:03:21.767Z,6.10
2023-01-28T13:05:59.732Z,6.93
2023-01-28T13:08:30.133Z,6.57
2023-01-28T13:11:04.301Z,8.57
2023-01-28T13:13:36.722Z,7.47
2023-01-28T13:16:07.726Z,6.53
2023-01-28T13:18:40.528Z,7.93
2023-01-28T13:21:25.621Z,6.57
2023-01-28T13:24:23.733Z,8.37
2023-01-28T13:26:57.348Z,8.40
2023-01-28T13:29:34.344Z,6.30
2023-01-28T13:32:23.870Z,7.83
2023-01-28T13:35:01.762Z,7.73
2023-01-28T13:37:38.917Z,5.10
2023-01-28T13:40:15.026Z,8.60
2023-01-28T13:42:42.374Z,8.47
2023-01-28T13:45:18.476Z,4.27
2023-01-28T13:47:51.616Z,7.67
2023-01-28T13:50:27.769Z,7.27
2023-01-28T13:53:06.012Z,4.47
2023-01-28T13:55:44.777Z,7.73
2023-01-28T13:59:08.530Z,7.33
2023-01-28T14:02:12.885Z,5.27
2023-01-28T14:05:00.543Z,7.53
2023-01-28T14:08:10.316Z,7.60
2023-01-28T14:10:53.966Z,7.23
2023-01-28T14:13:51.713Z,6.37
2023-01-28T14:16:29.152Z,6.07
2023-01-28T14:19:01.318Z,6.10
2023-01-28T14:21:33.827Z,6.43
2023-01-28T14:24:01.066Z,5.83
2023-01-28T14:26:46.621Z,6.90
2023-01-28T14:29:17.242Z,6.23
2023-01-28T14:31:44.348Z,6.10
2023-01-28T14:34:29.533Z,6.47
2023-01-28T14:37:04.440Z,6.80
2023-01-28T14:39:41.679Z,6.63
2023-01-28T14:42:35.691Z,6.70
2023-01-28T14:45:41.255Z,6.77
2023-01-28T14:48:27.578Z,9.43
2023-01-28T14:51:16.268Z,10.87
2023-01-28T14:54:07.407Z,7.97
2023-01-28T14:56:56.713Z,8.47
2023-01-28T14:59:30.469Z,9.97
2023-01-28T15:01:59.568Z,8.67
2023-01-28T15:04:35.619Z,7.43
2023-01-28T15:07:24.431Z,9.50
2023-01-28T15:10:24.399Z,7.83
2023-01-28T15:13:10.583Z,6.37
2023-01-28T15:15:40.841Z,10.87
2023-01-28T15:18:23.747Z,10.10
2023-01-28T15:20:55.131Z,7.07
2023-01-28T15:23:51.550Z,7.30
2023-01-28T15:26:36.703Z,7.53
2023-01-28T15:29:03.754Z,11.90
2023-01-28T15:31:34.616Z,8.97
2023-01-28T15:34:18.625Z,7.27
2023-01-28T15:36:47.696Z,7.10
2023-01-28T15:39:23.718Z,5.87
2023-01-28T15:42:06.729Z,6.77
2023-01-28T15:44:46.369Z,6.30
2023-01-28T15:47:28.912Z,6.40
2023-01-28T15:50:04.078Z,6.13
2023-01-28T15:52:37.122Z,5.73
2023-01-28T15:55:07.485Z,6.20
2023-01-28T15:57:35.583Z,6.00
2023-01-28T16:00:25.605Z,6.37
2023-01-28T16:02:55.351Z,6.20
2023-01-28T16:05:39.698Z,6.77
2023-01-28T16:08:16.248Z,7.10
2023-01-28T16:10:57.593Z,6.83
2023-01-28T16:13:30.572Z,7.20
2023-01-28T16:15:59.226Z,7.73
2023-01-28T16:18:51.667Z,7.40
2023-01-28T16:21:34.513Z,6.23
2023-01-28T16:24:26.126Z,11.73
2023-01-28T16:27:03.122Z,6.70
2023-01-28T16:29:31.367Z,5.50
2023-01-28T16:32:00.107Z,5.87
2023-01-28T16:34:27.735Z,5.97
2023-01-28T16:37:00.031Z,6.30
2023-01-28T16:39:26.893Z,7.53
2023-01-28T16:41:53.947Z,8.00
2023-01-28T16:44:20.802Z,8.30
2023-01-28T16:46:47.724Z,7.97
2023-01-28T16:49:14.524Z,9.50
2023-01-28T16:51:44.009Z,12.47
2023-01-28T16:54:15.772Z,13.27
2023-01-28T16:56:46.322Z,12.80
2023-01-28T16:59:16.083Z,12.13
2023-01-28T17:01:44.366Z,12.17
2023-01-28T17:04:13.042Z,13.10
2023-01-28T17:06:44.186Z,15.30
2023-01-28T17:09:13.649Z,14.37
2023-01-28T17:11:41.062Z,14.07
2023-01-28T17:14:09.099Z,14.40
2023-01-28T17:16:36.338Z,12.73
2023-01-28T17:19:03.361Z,13.40
2023-01-28T17:21:30.144Z,10.30
2023-01-28T17:23:58.334Z,13.47
2023-01-28T17:26:26.399Z,13.37
2023-01-28T17:28:53.822Z,9.93
2023-01-28T17:31:21.642Z,10.97
2023-01-28T17:33:54.721Z,8.80
2023-01-28T17:36:22.352Z,9.53
2023-01-28T17:38:49.242Z,10.20
2023-01-28T17:41:19.817Z,9.27
2023-01-28T17:43:55.484Z,9.20
2023-01-28T17:46:25.096Z,9.40
2023-01-28T17:48:53.141Z,9.00
2023-01-28T17:51:20.120Z,8.87
2023-01-28T17:53:52.928Z,8.60
2023-01-28T17:56:26.178Z,8.63
2023-01-28T17:58:59.415Z,8.60
2023-01-28T18:01:27.754Z,8.73
2023-01-28T18:03:55.644Z,8.80
2023-01-28T18:06:22.646Z,8.90
2023-01-28T18:08:49.739Z,8.10
2023-01-28T18:11:19.320Z,8.63
2023-01-28T18:13:46.974Z,8.77
2023-01-28T18:16:18.751Z,9.90
2023-01-28T18:18:46.788Z,9.80
2023-01-28T18:21:51.307Z,9.07
2023-01-28T18:24:20.068Z,8.80
2023-01-28T18:26:46.888Z,10.77
2023-01-28T18:29:16.783Z,9.93
2023-01-28T18:31:44.316Z,8.87
2023-01-28T18:34:11.665Z,9.07
2023-01-28T18:36:38.484Z,9.27
2023-01-28T18:39:05.759Z,8.90
2023-01-28T18:41:32.588Z,10.07
2023-01-28T18:43:59.376Z,9.20
2023-01-28T18:46:26.279Z,8.77
2023-01-28T18:48:53.254Z,10.00
2023-01-28T18:51:29.951Z,13.27
2023-01-28T18:54:03.137Z,31.60
2023-01-28T18:56:31.622Z,26.97
2023-01-28T18:59:04.499Z,22.97
2023-01-28T19:01:35.443Z,15.67
2023-01-28T19:04:02.992Z,17.27
2023-01-28T19:06:31.151Z,13.27
2023-01-28T19:09:06.352Z,13.40
2023-01-28T19:11:34.434Z,14.30
2023-01-28T19:14:01.876Z,14.30
2023-01-28T19:16:28.739Z,11.17
2023-01-28T19:18:59.308Z,9.97
2023-01-28T19:21:28.517Z,11.33
2023-01-28T19:23:59.139Z,11.83
2023-01-28T19:26:29.185Z,10.83
2023-01-28T19:28:56.207Z,10.87
2023-01-28T19:31:24.870Z,10.83
2023-01-28T19:33:59.978Z,10.33
2023-01-28T19:36:29.979Z,9.73
2023-01-28T19:39:04.608Z,16.53
2023-01-28T19:41:31.779Z,11.53
2023-01-28T19:43:58.958Z,9.83
2023-01-28T19:46:26.498Z,10.63
2023-01-28T19:48:53.980Z,10.93
2023-01-28T19:51:21.667Z,11.17
2023-01-28T19:53:54.357Z,12.23
2023-01-28T19:56:24.622Z,12.40
2023-01-28T19:58:54.391Z,12.57
2023-01-28T20:01:29.879Z,14.33
2023-01-28T20:04:00.176Z,13.13
2023-01-28T20:06:29.775Z,13.63
2023-01-28T20:09:01.726Z,11.90
2023-01-28T20:11:28.854Z,11.70
2023-01-28T20:13:56.396Z,11.20
2023-01-28T20:16:27.042Z,13.80
2023-01-28T20:18:57.903Z,12.10
2023-01-28T20:21:26.253Z,12.03
2023-01-28T20:23:54.891Z,14.93
2023-01-28T20:26:27.695Z,12.53
2023-01-28T20:28:54.490Z,12.80
2023-01-28T20:31:21.416Z,15.47
2023-01-28T20:33:48.378Z,17.20
2023-01-28T20:36:15.405Z,13.07
2023-01-28T20:38:47.608Z,13.00
2023-01-28T20:41:21.539Z,11.63
2023-01-28T20:43:50.697Z,10.73
2023-01-28T20:46:21.342Z,11.00
2023-01-28T20:48:49.223Z,11.10
2023-01-28T20:51:22.840Z,11.43
2023-01-28T20:53:50.945Z,12.03
2023-01-28T20:56:21.969Z,12.60
2023-01-28T20:58:55.430Z,12.43
2023-01-28T21:01:26.053Z,12.27
2023-01-28T21:03:53.076Z,13.03
2023-01-28T21:06:20.459Z,14.57
2023-01-28T21:08:47.253Z,14.60
2023-01-28T21:11:14.695Z,13.73
2023-01-28T21:13:41.591Z,13.23
2023-01-28T21:16:08.647Z,12.70
2023-01-28T21:18:36.063Z,12.50
2023-01-28T21:21:13.530Z,11.53
2023-01-28T21:23:41.099Z,11.60
2023-01-28T21:26:08.513Z,11.53
2023-01-28T21:28:35.444Z,11.80
2023-01-28T21:31:25.292Z,12.83
2023-01-28T21:33:55.161Z,13.10
2023-01-28T21:36:24.011Z,11.87
2023-01-28T21:38:57.353Z,11.93
2023-01-28T21:41:24.745Z,12.23
2023-01-28T21:43:53.904Z,12.13
2023-01-28T21:46:23.325Z,12.83
2023-01-28T21:48:58.522Z,12.97
2023-01-28T21:51:36.232Z,12.60
2023-01-28T21:54:04.650Z,13.30
2023-01-28T21:56:31.525Z,13.83
2023-01-28T21:59:17.041Z,15.53
2023-01-28T22:01:45.034Z,14.03
2023-01-28T22:04:12.762Z,13.03
2023-01-28T22:06:42.049Z,14.03
2023-01-28T22:09:14.298Z,13.43
2023-01-28T22:11:43.632Z,13.57
2023-01-28T22:14:11.306Z,14.40
2023-01-28T22:16:38.536Z,15.37
2023-01-28T22:19:05.720Z,14.30
2023-01-28T22:21:32.922Z,15.10
2023-01-28T22:23:59.754Z,14.93
2023-01-28T22:26:26.605Z,13.90
2023-01-28T22:28:53.535Z,13.53
2023-01-28T22:31:20.351Z,12.33
2023-01-28T22:33:47.263Z,13.00
2023-01-28T22:36:16.432Z,14.03
2023-01-28T22:38:45.167Z,14.10
2023-01-28T22:41:19.017Z,12.97
2023-01-28T22:43:47.016Z,13.20
2023-01-28T22:46:15.225Z,14.40
2023-01-28T22:48:42.163Z,13.57
2023-01-28T22:51:21.026Z,13.73
2023-01-28T22:53:49.051Z,14.80
2023-01-28T22:56:18.322Z,14.60
2023-01-28T22:58:45.229Z,14.27
2023-01-28T23:01:15.413Z,13.23
2023-01-28T23:03:48.532Z,13.63
2023-01-28T23:06:18.504Z,14.40
2023-01-28T23:08:45.485Z,14.53
2023-01-28T23:11:15.533Z,14.67
2023-01-28T23:14:02.360Z,13.63
2023-01-28T23:16:49.318Z,12.00
2023-01-28T23:19:35.809Z,13.80
2023-01-28T23:22:21.362Z,14.13
2023-01-28T23:24:48.204Z,13.27
2023-01-28T23:27:14.984Z,14.70
2023-01-28T23:29:41.830Z,14.50
2023-01-28T23:32:11.106Z,13.00
2023-01-28T23:34:46.266Z,13.20
2023-01-28T23:37:13.940Z,12.77
2023-01-28T23:39:42.071Z,14.73
2023-01-28T23:42:20.838Z,12.93
2023-01-28T23:44:47.778Z,14.23
2023-01-28T23:47:15.011Z,14.63
2023-01-28T23:49:41.990Z,13.93
2023-01-28T23:52:09.360Z,13.83
2023-01-28T23:54:36.219Z,13.93
2023-01-28T23:57:04.429Z,13.17
2023-01-28T23:59:31.222Z,14.83
